sensor_id;sensor_type;location;lat;lon;timestamp;P1;durP1;ratioP1;P2;durP2;ratioP2
46282;SDS011;32017;43.700;11.820;2023-03-03T00:01:55;13.93;;;13.02;;
46282;SDS011;32017;43.700;11.820;2023-03-03T00:04:14;17.13;;;15.77;;
46282;SDS011;32017;43.700;11.820;2023-03-03T00:06:34;17.40;;;15.85;;
46282;SDS011;32017;43.700;11.820;2023-03-03T00:08:54;17.58;;;15.95;;
46282;SDS011;32017;43.700;11.820;2023-03-03T00:11:15;15.50;;;14.38;;
46282;SDS011;32017;43.700;11.820;2023-03-03T00:13:38;15.35;;;14.30;;
46282;SDS011;32017;43.700;11.820;2023-03-03T00:16:50;14.90;;;13.98;;
46282;SDS011;32017;43.700;11.820;2023-03-03T00:18:48;14.45;;;13.68;;
46282;SDS011;32017;43.700;11.820;2023-03-03T00:21:44;13.77;;;12.93;;
46282;SDS011;32017;43.700;11.820;2023-03-03T00:24:13;15.77;;;14.60;;
46282;SDS011;32017;43.700;11.820;2023-03-03T00:26:51;14.15;;;13.25;;
46282;SDS011;32017;43.700;11.820;2023-03-03T00:29:35;14.00;;;13.00;;
46282;SDS011;32017;43.700;11.820;2023-03-03T00:32:16;12.05;;;11.63;;
46282;SDS011;32017;43.700;11.820;2023-03-03T00:34:41;12.57;;;11.77;;
46282;SDS011;32017;43.700;11.820;2023-03-03T00:37:03;13.15;;;12.07;;
46282;SDS011;32017;43.700;11.820;2023-03-03T00:39:38;10.45;;;10.15;;
46282;SDS011;32017;43.700;11.820;2023-03-03T00:41:58;10.23;;;9.57;;
46282;SDS011;32017;43.700;11.820;2023-03-03T00:46:46;11.45;;;10.68;;
46282;SDS011;32017;43.700;11.820;2023-03-03T00:49:07;11.68;;;10.73;;
46282;SDS011;32017;43.700;11.820;2023-03-03T00:51:42;11.40;;;10.93;;
46282;SDS011;32017;43.700;11.820;2023-03-03T00:54:02;13.55;;;12.40;;
46282;SDS011;32017;43.700;11.820;2023-03-03T00:56:22;14.30;;;13.38;;
46282;SDS011;32017;43.700;11.820;2023-03-03T00:58:43;12.32;;;11.60;;
46282;SDS011;32017;43.700;11.820;2023-03-03T01:01:04;13.02;;;12.43;;
46282;SDS011;32017;43.700;11.820;2023-03-03T01:03:25;12.20;;;11.60;;
46282;SDS011;32017;43.700;11.820;2023-03-03T01:05:45;11.57;;;10.73;;
46282;SDS011;32017;43.700;11.820;2023-03-03T01:08:05;12.93;;;12.43;;
46282;SDS011;32017;43.700;11.820;2023-03-03T01:10:26;11.02;;;10.43;;
46282;SDS011;32017;43.700;11.820;2023-03-03T01:12:47;10.88;;;10.57;;
46282;SDS011;32017;43.700;11.820;2023-03-03T01:15:08;12.18;;;11.30;;
46282;SDS011;32017;43.700;11.820;2023-03-03T01:17:30;11.55;;;11.10;;
46282;SDS011;32017;43.700;11.820;2023-03-03T01:19:50;11.77;;;11.18;;
46282;SDS011;32017;43.700;11.820;2023-03-03T01:22:12;9.55;;;9.30;;
46282;SDS011;32017;43.700;11.820;2023-03-03T01:24:32;9.15;;;8.95;;
46282;SDS011;32017;43.700;11.820;2023-03-03T01:26:52;10.70;;;10.10;;
46282;SDS011;32017;43.700;11.820;2023-03-03T01:29:12;10.80;;;10.38;;
46282;SDS011;32017;43.700;11.820;2023-03-03T01:31:33;11.10;;;10.70;;
46282;SDS011;32017;43.700;11.820;2023-03-03T01:33:53;11.45;;;11.05;;
46282;SDS011;32017;43.700;11.820;2023-03-03T01:36:13;11.85;;;11.55;;
46282;SDS011;32017;43.700;11.820;2023-03-03T01:38:36;11.43;;;10.82;;
46282;SDS011;32017;43.700;11.820;2023-03-03T01:40:57;11.98;;;11.40;;
46282;SDS011;32017;43.700;11.820;2023-03-03T01:43:18;12.82;;;11.85;;
46282;SDS011;32017;43.700;11.820;2023-03-03T01:48:09;12.90;;;12.00;;
46282;SDS011;32017;43.700;11.820;2023-03-03T01:50:50;13.10;;;12.55;;
46282;SDS011;32017;43.700;11.820;2023-03-03T01:53:20;12.35;;;11.60;;
46282;SDS011;32017;43.700;11.820;2023-03-03T01:55:46;11.57;;;11.02;;
46282;SDS011;32017;43.700;11.820;2023-03-03T01:58:12;12.20;;;11.65;;
46282;SDS011;32017;43.700;11.820;2023-03-03T02:00:37;13.65;;;12.85;;
46282;SDS011;32017;43.700;11.820;2023-03-03T02:02:59;11.85;;;11.15;;
46282;SDS011;32017;43.700;11.820;2023-03-03T02:05:19;10.70;;;9.85;;
46282;SDS011;32017;43.700;11.820;2023-03-03T02:07:40;11.60;;;11.05;;
46282;SDS011;32017;43.700;11.820;2023-03-03T02:10:04;12.85;;;11.98;;
46282;SDS011;32017;43.700;11.820;2023-03-03T02:12:43;12.32;;;11.70;;
46282;SDS011;32017;43.700;11.820;2023-03-03T02:17:36;11.55;;;11.15;;
46282;SDS011;32017;43.700;11.820;2023-03-03T02:20:00;10.93;;;10.48;;
46282;SDS011;32017;43.700;11.820;2023-03-03T02:22:57;11.18;;;10.48;;
46282;SDS011;32017;43.700;11.820;2023-03-03T02:25:45;11.32;;;10.75;;
46282;SDS011;32017;43.700;11.820;2023-03-03T02:28:06;12.85;;;12.23;;
46282;SDS011;32017;43.700;11.820;2023-03-03T02:30:25;11.23;;;10.50;;
46282;SDS011;32017;43.700;11.820;2023-03-03T02:32:46;11.45;;;10.98;;
46282;SDS011;32017;43.700;11.820;2023-03-03T02:35:23;11.43;;;11.02;;
46282;SDS011;32017;43.700;11.820;2023-03-03T02:37:50;10.95;;;10.20;;
46282;SDS011;32017;43.700;11.820;2023-03-03T02:40:11;11.48;;;11.02;;
46282;SDS011;32017;43.700;11.820;2023-03-03T02:42:31;12.77;;;12.00;;
46282;SDS011;32017;43.700;11.820;2023-03-03T02:44:51;12.30;;;11.40;;
46282;SDS011;32017;43.700;11.820;2023-03-03T02:47:13;12.98;;;12.10;;
46282;SDS011;32017;43.700;11.820;2023-03-03T02:49:33;13.07;;;12.30;;
46282;SDS011;32017;43.700;11.820;2023-03-03T02:51:55;11.80;;;11.18;;
46282;SDS011;32017;43.700;11.820;2023-03-03T02:54:15;12.02;;;11.43;;
46282;SDS011;32017;43.700;11.820;2023-03-03T02:56:36;11.07;;;10.63;;
46282;SDS011;32017;43.700;11.820;2023-03-03T02:58:56;11.82;;;11.05;;
46282;SDS011;32017;43.700;11.820;2023-03-03T03:01:17;10.27;;;9.88;;
46282;SDS011;32017;43.700;11.820;2023-03-03T03:03:38;11.10;;;10.55;;
46282;SDS011;32017;43.700;11.820;2023-03-03T03:05:58;13.85;;;12.95;;
46282;SDS011;32017;43.700;11.820;2023-03-03T03:08:18;14.20;;;13.20;;
46282;SDS011;32017;43.700;11.820;2023-03-03T03:10:37;15.25;;;13.88;;
46282;SDS011;32017;43.700;11.820;2023-03-03T03:12:57;14.93;;;13.98;;
46282;SDS011;32017;43.700;11.820;2023-03-03T03:15:17;12.75;;;11.98;;
46282;SDS011;32017;43.700;11.820;2023-03-03T03:17:37;13.70;;;13.02;;
46282;SDS011;32017;43.700;11.820;2023-03-03T03:19:57;11.55;;;10.80;;
46282;SDS011;32017;43.700;11.820;2023-03-03T03:22:18;11.63;;;11.05;;
46282;SDS011;32017;43.700;11.820;2023-03-03T03:24:38;11.10;;;10.60;;
46282;SDS011;32017;43.700;11.820;2023-03-03T03:26:58;11.55;;;10.93;;
46282;SDS011;32017;43.700;11.820;2023-03-03T03:29:17;10.55;;;10.15;;
46282;SDS011;32017;43.700;11.820;2023-03-03T03:31:38;12.82;;;11.98;;
46282;SDS011;32017;43.700;11.820;2023-03-03T03:33:57;11.60;;;10.98;;
46282;SDS011;32017;43.700;11.820;2023-03-03T03:36:18;11.02;;;10.52;;
46282;SDS011;32017;43.700;11.820;2023-03-03T03:38:38;11.73;;;11.32;;
46282;SDS011;32017;43.700;11.820;2023-03-03T03:40:59;12.13;;;11.73;;
46282;SDS011;32017;43.700;11.820;2023-03-03T03:43:18;10.77;;;10.23;;
46282;SDS011;32017;43.700;11.820;2023-03-03T03:45:40;11.57;;;11.00;;
46282;SDS011;32017;43.700;11.820;2023-03-03T03:48:01;11.32;;;10.93;;
46282;SDS011;32017;43.700;11.820;2023-03-03T03:50:21;10.07;;;9.65;;
46282;SDS011;32017;43.700;11.820;2023-03-03T03:52:41;10.60;;;10.15;;
46282;SDS011;32017;43.700;11.820;2023-03-03T03:55:02;10.00;;;9.70;;
46282;SDS011;32017;43.700;11.820;2023-03-03T03:57:22;11.05;;;10.63;;
46282;SDS011;32017;43.700;11.820;2023-03-03T03:59:45;10.90;;;10.50;;
46282;SDS011;32017;43.700;11.820;2023-03-03T04:02:08;12.37;;;11.20;;
46282;SDS011;32017;43.700;11.820;2023-03-03T04:04:28;10.38;;;9.55;;
46282;SDS011;32017;43.700;11.820;2023-03-03T04:06:48;9.43;;;8.98;;
46282;SDS011;32017;43.700;11.820;2023-03-03T04:09:09;10.48;;;9.48;;
46282;SDS011;32017;43.700;11.820;2023-03-03T04:11:29;10.82;;;10.43;;
46282;SDS011;32017;43.700;11.820;2023-03-03T04:13:49;10.68;;;10.32;;
46282;SDS011;32017;43.700;11.820;2023-03-03T04:16:09;11.38;;;10.98;;
46282;SDS011;32017;43.700;11.820;2023-03-03T04:18:30;12.63;;;12.02;;
46282;SDS011;32017;43.700;11.820;2023-03-03T04:20:49;12.23;;;11.60;;
46282;SDS011;32017;43.700;11.820;2023-03-03T04:23:10;11.93;;;11.27;;
46282;SDS011;32017;43.700;11.820;2023-03-03T04:25:31;11.05;;;10.65;;
46282;SDS011;32017;43.700;11.820;2023-03-03T04:27:51;13.02;;;11.82;;
46282;SDS011;32017;43.700;11.820;2023-03-03T04:30:11;12.70;;;12.00;;
46282;SDS011;32017;43.700;11.820;2023-03-03T04:32:33;11.00;;;10.30;;
46282;SDS011;32017;43.700;11.820;2023-03-03T04:34:53;10.25;;;9.85;;
46282;SDS011;32017;43.700;11.820;2023-03-03T04:37:26;10.40;;;10.20;;
46282;SDS011;32017;43.700;11.820;2023-03-03T04:39:46;10.15;;;9.70;;
46282;SDS011;32017;43.700;11.820;2023-03-03T04:42:06;10.63;;;10.00;;
46282;SDS011;32017;43.700;11.820;2023-03-03T04:44:25;9.25;;;9.05;;
46282;SDS011;32017;43.700;11.820;2023-03-03T04:46:45;8.30;;;8.10;;
46282;SDS011;32017;43.700;11.820;2023-03-03T04:49:06;8.55;;;8.20;;
46282;SDS011;32017;43.700;11.820;2023-03-03T04:51:28;10.27;;;9.88;;
46282;SDS011;32017;43.700;11.820;2023-03-03T04:53:48;9.73;;;9.45;;
46282;SDS011;32017;43.700;11.820;2023-03-03T04:56:08;7.68;;;7.45;;
46282;SDS011;32017;43.700;11.820;2023-03-03T04:58:28;9.13;;;8.85;;
46282;SDS011;32017;43.700;11.820;2023-03-03T05:00:55;9.75;;;9.13;;
46282;SDS011;32017;43.700;11.820;2023-03-03T05:03:16;9.60;;;9.30;;
46282;SDS011;32017;43.700;11.820;2023-03-03T05:05:36;7.55;;;7.45;;
46282;SDS011;32017;43.700;11.820;2023-03-03T05:07:55;10.68;;;9.95;;
46282;SDS011;32017;43.700;11.820;2023-03-03T05:10:16;10.10;;;9.90;;
46282;SDS011;32017;43.700;11.820;2023-03-03T05:12:36;10.07;;;9.50;;
46282;SDS011;32017;43.700;11.820;2023-03-03T05:14:55;8.50;;;8.07;;
46282;SDS011;32017;43.700;11.820;2023-03-03T05:17:17;8.38;;;8.02;;
46282;SDS011;32017;43.700;11.820;2023-03-03T05:19:37;6.45;;;6.25;;
46282;SDS011;32017;43.700;11.820;2023-03-03T05:21:56;6.22;;;5.97;;
46282;SDS011;32017;43.700;11.820;2023-03-03T05:24:16;6.97;;;6.78;;
46282;SDS011;32017;43.700;11.820;2023-03-03T05:26:38;5.47;;;5.38;;
46282;SDS011;32017;43.700;11.820;2023-03-03T05:28:58;6.10;;;6.03;;
46282;SDS011;32017;43.700;11.820;2023-03-03T05:31:18;4.97;;;4.88;;
46282;SDS011;32017;43.700;11.820;2023-03-03T05:33:38;10.68;;;10.10;;
46282;SDS011;32017;43.700;11.820;2023-03-03T05:35:58;15.95;;;14.27;;
46282;SDS011;32017;43.700;11.820;2023-03-03T05:38:18;14.15;;;13.27;;
46282;SDS011;32017;43.700;11.820;2023-03-03T05:40:38;15.63;;;14.68;;
46282;SDS011;32017;43.700;11.820;2023-03-03T05:42:58;14.25;;;13.35;;
46282;SDS011;32017;43.700;11.820;2023-03-03T05:45:19;9.50;;;9.18;;
46282;SDS011;32017;43.700;11.820;2023-03-03T05:47:40;10.10;;;9.68;;
46282;SDS011;32017;43.700;11.820;2023-03-03T05:50:01;10.55;;;10.23;;
46282;SDS011;32017;43.700;11.820;2023-03-03T05:52:22;9.93;;;9.52;;
46282;SDS011;32017;43.700;11.820;2023-03-03T05:54:42;9.10;;;8.55;;
46282;SDS011;32017;43.700;11.820;2023-03-03T05:57:04;10.48;;;10.10;;
46282;SDS011;32017;43.700;11.820;2023-03-03T05:59:23;12.10;;;11.25;;
46282;SDS011;32017;43.700;11.820;2023-03-03T06:01:44;10.85;;;10.45;;
46282;SDS011;32017;43.700;11.820;2023-03-03T06:04:05;11.70;;;11.20;;
46282;SDS011;32017;43.700;11.820;2023-03-03T06:06:25;13.25;;;12.30;;
46282;SDS011;32017;43.700;11.820;2023-03-03T06:08:46;13.65;;;13.05;;
46282;SDS011;32017;43.700;11.820;2023-03-03T06:11:07;11.98;;;11.13;;
46282;SDS011;32017;43.700;11.820;2023-03-03T06:13:27;11.27;;;10.88;;
46282;SDS011;32017;43.700;11.820;2023-03-03T06:15:47;11.45;;;10.63;;
46282;SDS011;32017;43.700;11.820;2023-03-03T06:18:07;12.10;;;11.52;;
46282;SDS011;32017;43.700;11.820;2023-03-03T06:20:28;12.27;;;11.45;;
46282;SDS011;32017;43.700;11.820;2023-03-03T06:22:48;11.35;;;10.75;;
46282;SDS011;32017;43.700;11.820;2023-03-03T06:25:08;8.18;;;7.85;;
46282;SDS011;32017;43.700;11.820;2023-03-03T06:27:29;7.45;;;6.90;;
46282;SDS011;32017;43.700;11.820;2023-03-03T06:29:48;7.45;;;7.10;;
46282;SDS011;32017;43.700;11.820;2023-03-03T06:32:09;10.07;;;9.45;;
46282;SDS011;32017;43.700;11.820;2023-03-03T06:34:29;10.27;;;9.77;;
46282;SDS011;32017;43.700;11.820;2023-03-03T06:36:49;10.23;;;9.82;;
46282;SDS011;32017;43.700;11.820;2023-03-03T06:39:09;16.42;;;14.95;;
46282;SDS011;32017;43.700;11.820;2023-03-03T06:41:29;16.58;;;15.18;;
46282;SDS011;32017;43.700;11.820;2023-03-03T06:43:49;13.02;;;12.52;;
46282;SDS011;32017;43.700;11.820;2023-03-03T06:46:10;11.45;;;10.68;;
46282;SDS011;32017;43.700;11.820;2023-03-03T06:48:31;9.82;;;9.65;;
46282;SDS011;32017;43.700;11.820;2023-03-03T06:50:51;6.53;;;6.43;;
46282;SDS011;32017;43.700;11.820;2023-03-03T06:53:12;9.00;;;8.60;;
46282;SDS011;32017;43.700;11.820;2023-03-03T06:55:33;14.02;;;12.93;;
46282;SDS011;32017;43.700;11.820;2023-03-03T06:57:53;13.25;;;12.45;;
46282;SDS011;32017;43.700;11.820;2023-03-03T07:02:45;10.52;;;10.10;;
46282;SDS011;32017;43.700;11.820;2023-03-03T07:05:26;26.25;;;20.48;;
46282;SDS011;32017;43.700;11.820;2023-03-03T07:07:47;14.80;;;13.60;;
46282;SDS011;32017;43.700;11.820;2023-03-03T07:10:28;16.15;;;14.93;;
46282;SDS011;32017;43.700;11.820;2023-03-03T07:12:49;13.80;;;12.90;;
46282;SDS011;32017;43.700;11.820;2023-03-03T07:15:20;12.73;;;12.07;;
46282;SDS011;32017;43.700;11.820;2023-03-03T07:17:49;13.73;;;12.98;;
46282;SDS011;32017;43.700;11.820;2023-03-03T07:20:23;13.50;;;12.57;;
46282;SDS011;32017;43.700;11.820;2023-03-03T07:22:48;12.88;;;12.32;;
46282;SDS011;32017;43.700;11.820;2023-03-03T07:25:17;11.77;;;11.25;;
46282;SDS011;32017;43.700;11.820;2023-03-03T07:27:59;15.10;;;13.82;;
46282;SDS011;32017;43.700;11.820;2023-03-03T07:30:33;15.50;;;14.48;;
46282;SDS011;32017;43.700;11.820;2023-03-03T07:32:54;17.48;;;15.85;;
46282;SDS011;32017;43.700;11.820;2023-03-03T07:37:50;11.45;;;10.95;;
46282;SDS011;32017;43.700;11.820;2023-03-03T07:42:54;13.13;;;12.32;;
46282;SDS011;32017;43.700;11.820;2023-03-03T07:45:30;12.85;;;12.05;;
46282;SDS011;32017;43.700;11.820;2023-03-03T07:48:00;11.90;;;11.50;;
46282;SDS011;32017;43.700;11.820;2023-03-03T07:50:35;11.63;;;10.93;;
46282;SDS011;32017;43.700;11.820;2023-03-03T07:52:56;13.13;;;12.25;;
46282;SDS011;32017;43.700;11.820;2023-03-03T07:55:26;14.85;;;13.90;;
46282;SDS011;32017;43.700;11.820;2023-03-03T07:57:53;15.85;;;14.57;;
46282;SDS011;32017;43.700;11.820;2023-03-03T08:03:02;14.13;;;13.23;;
46282;SDS011;32017;43.700;11.820;2023-03-03T08:05:33;14.30;;;13.38;;
46282;SDS011;32017;43.700;11.820;2023-03-03T08:08:09;10.98;;;10.43;;
46282;SDS011;32017;43.700;11.820;2023-03-03T08:10:55;10.50;;;10.18;;
46282;SDS011;32017;43.700;11.820;2023-03-03T08:13:17;12.82;;;12.05;;
46282;SDS011;32017;43.700;11.820;2023-03-03T08:15:37;11.30;;;10.68;;
46282;SDS011;32017;43.700;11.820;2023-03-03T08:17:57;13.40;;;12.80;;
46282;SDS011;32017;43.700;11.820;2023-03-03T08:23:06;12.23;;;11.35;;
46282;SDS011;32017;43.700;11.820;2023-03-03T08:25:26;15.65;;;14.48;;
46282;SDS011;32017;43.700;11.820;2023-03-03T08:27:47;18.98;;;17.10;;
46282;SDS011;32017;43.700;11.820;2023-03-03T08:30:07;16.15;;;14.65;;
46282;SDS011;32017;43.700;11.820;2023-03-03T08:32:27;16.15;;;14.75;;
46282;SDS011;32017;43.700;11.820;2023-03-03T08:34:47;14.02;;;13.05;;
46282;SDS011;32017;43.700;11.820;2023-03-03T08:37:12;43.20;;;27.25;;
46282;SDS011;32017;43.700;11.820;2023-03-03T08:39:32;15.32;;;14.02;;
46282;SDS011;32017;43.700;11.820;2023-03-03T08:41:52;29.80;;;22.27;;
46282;SDS011;32017;43.700;11.820;2023-03-03T08:44:12;14.25;;;13.18;;
46282;SDS011;32017;43.700;11.820;2023-03-03T08:46:32;30.65;;;21.10;;
46282;SDS011;32017;43.700;11.820;2023-03-03T08:48:52;68.80;;;41.33;;
46282;SDS011;32017;43.700;11.820;2023-03-03T08:51:13;47.17;;;31.00;;
46282;SDS011;32017;43.700;11.820;2023-03-03T08:53:33;16.08;;;14.80;;
46282;SDS011;32017;43.700;11.820;2023-03-03T08:55:57;13.35;;;12.27;;
46282;SDS011;32017;43.700;11.820;2023-03-03T08:58:18;11.57;;;10.77;;
46282;SDS011;32017;43.700;11.820;2023-03-03T09:00:46;14.80;;;13.85;;
46282;SDS011;32017;43.700;11.820;2023-03-03T09:03:09;12.45;;;11.68;;
46282;SDS011;32017;43.700;11.820;2023-03-03T09:05:29;8.90;;;8.45;;
46282;SDS011;32017;43.700;11.820;2023-03-03T09:07:52;13.50;;;12.25;;
46282;SDS011;32017;43.700;11.820;2023-03-03T09:10:13;11.43;;;10.37;;
46282;SDS011;32017;43.700;11.820;2023-03-03T09:12:40;9.80;;;9.40;;
46282;SDS011;32017;43.700;11.820;2023-03-03T09:15:07;8.32;;;7.95;;
46282;SDS011;32017;43.700;11.820;2023-03-03T09:17:51;11.18;;;10.50;;
46282;SDS011;32017;43.700;11.820;2023-03-03T09:22:52;10.32;;;9.68;;
46282;SDS011;32017;43.700;11.820;2023-03-03T09:25:18;10.43;;;9.73;;
46282;SDS011;32017;43.700;11.820;2023-03-03T09:27:52;9.25;;;8.90;;
46282;SDS011;32017;43.700;11.820;2023-03-03T09:32:43;7.55;;;7.30;;
46282;SDS011;32017;43.700;11.820;2023-03-03T09:37:56;7.43;;;7.22;;
46282;SDS011;32017;43.700;11.820;2023-03-03T09:40:31;7.50;;;7.15;;
46282;SDS011;32017;43.700;11.820;2023-03-03T09:43:16;7.57;;;7.30;;
46282;SDS011;32017;43.700;11.820;2023-03-03T09:57:19;8.15;;;7.32;;
46282;SDS011;32017;43.700;11.820;2023-03-03T10:04:51;7.05;;;6.45;;
46282;SDS011;32017;43.700;11.820;2023-03-03T10:12:19;6.60;;;6.50;;
46282;SDS011;32017;43.700;11.820;2023-03-03T10:22:55;6.97;;;6.28;;
46282;SDS011;32017;43.700;11.820;2023-03-03T10:30:58;6.72;;;6.15;;
46282;SDS011;32017;43.700;11.820;2023-03-03T10:34:03;7.50;;;6.72;;
46282;SDS011;32017;43.700;11.820;2023-03-03T10:36:54;6.82;;;6.40;;
46282;SDS011;32017;43.700;11.820;2023-03-03T10:47:45;6.75;;;6.40;;
46282;SDS011;32017;43.700;11.820;2023-03-03T10:50:59;7.28;;;6.88;;
46282;SDS011;32017;43.700;11.820;2023-03-03T10:53:33;7.97;;;7.32;;
46282;SDS011;32017;43.700;11.820;2023-03-03T11:06:31;7.85;;;7.30;;
46282;SDS011;32017;43.700;11.820;2023-03-03T11:09:04;5.45;;;4.95;;
46282;SDS011;32017;43.700;11.820;2023-03-03T11:44:21;5.07;;;4.70;;
46282;SDS011;32017;43.700;11.820;2023-03-03T11:46:57;4.55;;;4.28;;
46282;SDS011;32017;43.700;11.820;2023-03-03T11:51:57;6.97;;;5.07;;
46282;SDS011;32017;43.700;11.820;2023-03-03T11:54:51;6.30;;;5.97;;
46282;SDS011;32017;43.700;11.820;2023-03-03T12:05:47;5.63;;;5.00;;
46282;SDS011;32017;43.700;11.820;2023-03-03T12:11:50;8.13;;;6.22;;
46282;SDS011;32017;43.700;11.820;2023-03-03T12:19:28;4.85;;;4.55;;
46282;SDS011;32017;43.700;11.820;2023-03-03T12:25:17;5.65;;;5.30;;
46282;SDS011;32017;43.700;11.820;2023-03-03T12:35:49;18.75;;;6.20;;
46282;SDS011;32017;43.700;11.820;2023-03-03T12:38:39;5.18;;;4.78;;
46282;SDS011;32017;43.700;11.820;2023-03-03T12:44:54;6.13;;;5.70;;
46282;SDS011;32017;43.700;11.820;2023-03-03T12:50:13;4.57;;;4.47;;
46282;SDS011;32017;43.700;11.820;2023-03-03T12:58:29;4.93;;;4.45;;
46282;SDS011;32017;43.700;11.820;2023-03-03T13:06:19;4.70;;;4.30;;
46282;SDS011;32017;43.700;11.820;2023-03-03T13:11:38;5.03;;;4.85;;
46282;SDS011;32017;43.700;11.820;2023-03-03T13:19:21;4.18;;;3.92;;
46282;SDS011;32017;43.700;11.820;2023-03-03T13:21:47;5.22;;;3.28;;
46282;SDS011;32017;43.700;11.820;2023-03-03T13:29:17;5.18;;;3.30;;
46282;SDS011;32017;43.700;11.820;2023-03-03T13:31:46;5.30;;;4.82;;
46282;SDS011;32017;43.700;11.820;2023-03-03T13:37:01;9.27;;;4.70;;
46282;SDS011;32017;43.700;11.820;2023-03-03T13:39:31;5.80;;;4.65;;
46282;SDS011;32017;43.700;11.820;2023-03-03T13:42:00;3.65;;;3.30;;
46282;SDS011;32017;43.700;11.820;2023-03-03T13:44:27;4.55;;;4.25;;
46282;SDS011;32017;43.700;11.820;2023-03-03T13:47:12;4.07;;;3.88;;
46282;SDS011;32017;43.700;11.820;2023-03-03T13:50:03;4.18;;;3.85;;
46282;SDS011;32017;43.700;11.820;2023-03-03T13:52:35;4.20;;;3.88;;
46282;SDS011;32017;43.700;11.820;2023-03-03T13:58:12;7.03;;;4.75;;
46282;SDS011;32017;43.700;11.820;2023-03-03T14:05:47;4.20;;;4.10;;
46282;SDS011;32017;43.700;11.820;2023-03-03T14:10:31;6.75;;;6.15;;
46282;SDS011;32017;43.700;11.820;2023-03-03T14:13:06;7.88;;;7.60;;
46282;SDS011;32017;43.700;11.820;2023-03-03T14:15:47;7.75;;;7.15;;
46282;SDS011;32017;43.700;11.820;2023-03-03T14:20:55;7.15;;;6.63;;
46282;SDS011;32017;43.700;11.820;2023-03-03T14:23:32;8.32;;;7.93;;
46282;SDS011;32017;43.700;11.820;2023-03-03T14:26:17;9.55;;;8.63;;
46282;SDS011;32017;43.700;11.820;2023-03-03T14:28:41;7.03;;;6.85;;
46282;SDS011;32017;43.700;11.820;2023-03-03T14:31:25;8.95;;;8.35;;
46282;SDS011;32017;43.700;11.820;2023-03-03T14:33:56;9.70;;;9.13;;
46282;SDS011;32017;43.700;11.820;2023-03-03T14:36:23;9.65;;;8.93;;
46282;SDS011;32017;43.700;11.820;2023-03-03T14:38:54;10.43;;;9.25;;
46282;SDS011;32017;43.700;11.820;2023-03-03T14:41:15;8.45;;;7.88;;
46282;SDS011;32017;43.700;11.820;2023-03-03T14:43:39;8.98;;;8.48;;
46282;SDS011;32017;43.700;11.820;2023-03-03T14:48:50;9.25;;;8.70;;
46282;SDS011;32017;43.700;11.820;2023-03-03T14:51:22;9.68;;;8.82;;
46282;SDS011;32017;43.700;11.820;2023-03-03T14:53:42;8.30;;;7.68;;
46282;SDS011;32017;43.700;11.820;2023-03-03T14:56:15;7.67;;;7.03;;
46282;SDS011;32017;43.700;11.820;2023-03-03T14:58:42;7.43;;;7.13;;
46282;SDS011;32017;43.700;11.820;2023-03-03T15:07:00;8.38;;;7.95;;
46282;SDS011;32017;43.700;11.820;2023-03-03T15:11:51;8.68;;;8.15;;
46282;SDS011;32017;43.700;11.820;2023-03-03T15:14:15;9.55;;;8.95;;
46282;SDS011;32017;43.700;11.820;2023-03-03T15:16:38;9.10;;;7.68;;
46282;SDS011;32017;43.700;11.820;2023-03-03T15:21:25;9.40;;;8.85;;
46282;SDS011;32017;43.700;11.820;2023-03-03T15:23:53;12.20;;;8.73;;
46282;SDS011;32017;43.700;11.820;2023-03-03T15:42:38;11.40;;;10.70;;
46282;SDS011;32017;43.700;11.820;2023-03-03T15:45:03;13.40;;;12.05;;
46282;SDS011;32017;43.700;11.820;2023-03-03T15:55:16;12.95;;;11.65;;
46282;SDS011;32017;43.700;11.820;2023-03-03T16:14:29;12.73;;;11.55;;
46282;SDS011;32017;43.700;11.820;2023-03-03T16:16:53;11.68;;;10.98;;
46282;SDS011;32017;43.700;11.820;2023-03-03T16:32:23;11.30;;;10.40;;
46282;SDS011;32017;43.700;11.820;2023-03-03T16:35:24;12.63;;;11.80;;
46282;SDS011;32017;43.700;11.820;2023-03-03T16:43:26;11.95;;;11.13;;
46282;SDS011;32017;43.700;11.820;2023-03-03T16:45:42;12.70;;;11.75;;
46282;SDS011;32017;43.700;11.820;2023-03-03T16:48:12;14.05;;;11.77;;
46282;SDS011;32017;43.700;11.820;2023-03-03T16:50:57;16.02;;;14.60;;
46282;SDS011;32017;43.700;11.820;2023-03-03T16:56:33;15.93;;;14.48;;
46282;SDS011;32017;43.700;11.820;2023-03-03T17:04:39;12.02;;;11.20;;
46282;SDS011;32017;43.700;11.820;2023-03-03T17:17:27;15.43;;;14.18;;
46282;SDS011;32017;43.700;11.820;2023-03-03T17:23:03;20.95;;;17.77;;
46282;SDS011;32017;43.700;11.820;2023-03-03T17:37:07;16.98;;;15.55;;
46282;SDS011;32017;43.700;11.820;2023-03-03T17:39:45;15.88;;;14.32;;
46282;SDS011;32017;43.700;11.820;2023-03-03T17:42:36;16.50;;;14.85;;
46282;SDS011;32017;43.700;11.820;2023-03-03T17:50:02;13.27;;;12.20;;
46282;SDS011;32017;43.700;11.820;2023-03-03T17:52:50;15.73;;;14.35;;
46282;SDS011;32017;43.700;11.820;2023-03-03T18:14:42;18.15;;;16.45;;
46282;SDS011;32017;43.700;11.820;2023-03-03T18:22:46;13.52;;;12.27;;
46282;SDS011;32017;43.700;11.820;2023-03-03T18:27:42;15.98;;;14.30;;
46282;SDS011;32017;43.700;11.820;2023-03-03T18:32:38;13.45;;;12.55;;
46282;SDS011;32017;43.700;11.820;2023-03-03T18:37:51;14.43;;;13.00;;
46282;SDS011;32017;43.700;11.820;2023-03-03T18:42:37;21.58;;;19.40;;
46282;SDS011;32017;43.700;11.820;2023-03-03T18:50:31;20.20;;;18.27;;
46282;SDS011;32017;43.700;11.820;2023-03-03T18:55:51;18.65;;;16.73;;
46282;SDS011;32017;43.700;11.820;2023-03-03T19:00:51;22.40;;;19.45;;
46282;SDS011;32017;43.700;11.820;2023-03-03T19:06:07;19.02;;;16.73;;
46282;SDS011;32017;43.700;11.820;2023-03-03T19:08:42;19.58;;;17.75;;
46282;SDS011;32017;43.700;11.820;2023-03-03T19:11:03;28.38;;;21.80;;
46282;SDS011;32017;43.700;11.820;2023-03-03T19:15:57;16.58;;;14.43;;
46282;SDS011;32017;43.700;11.820;2023-03-03T19:18:22;15.63;;;14.18;;
46282;SDS011;32017;43.700;11.820;2023-03-03T19:21:05;26.98;;;22.70;;
46282;SDS011;32017;43.700;11.820;2023-03-03T19:23:45;20.60;;;18.35;;
46282;SDS011;32017;43.700;11.820;2023-03-03T19:28:47;16.42;;;15.05;;
46282;SDS011;32017;43.700;11.820;2023-03-03T19:31:31;16.63;;;15.32;;
46282;SDS011;32017;43.700;11.820;2023-03-03T19:34:06;22.73;;;20.88;;
46282;SDS011;32017;43.700;11.820;2023-03-03T19:36:56;24.15;;;21.20;;
46282;SDS011;32017;43.700;11.820;2023-03-03T19:44:53;14.73;;;13.32;;
46282;SDS011;32017;43.700;11.820;2023-03-03T19:47:37;15.20;;;13.88;;
46282;SDS011;32017;43.700;11.820;2023-03-03T19:52:41;19.63;;;17.52;;
46282;SDS011;32017;43.700;11.820;2023-03-03T20:11:09;11.93;;;11.13;;
46282;SDS011;32017;43.700;11.820;2023-03-03T20:13:56;13.77;;;13.07;;
46282;SDS011;32017;43.700;11.820;2023-03-03T20:16:41;15.43;;;13.73;;
46282;SDS011;32017;43.700;11.820;2023-03-03T20:26:57;15.07;;;13.60;;
46282;SDS011;32017;43.700;11.820;2023-03-03T20:32:34;20.15;;;17.85;;
46282;SDS011;32017;43.700;11.820;2023-03-03T20:37:56;24.60;;;22.05;;
46282;SDS011;32017;43.700;11.820;2023-03-03T20:46:07;25.30;;;22.65;;
46282;SDS011;32017;43.700;11.820;2023-03-03T20:51:21;21.33;;;19.35;;
46282;SDS011;32017;43.700;11.820;2023-03-03T20:54:02;31.30;;;27.33;;
46282;SDS011;32017;43.700;11.820;2023-03-03T20:59:29;26.08;;;22.58;;